createdAt,value
2022-11-03T00:02:04.921Z,67.66
2022-11-03T00:04:32.678Z,69.68
2022-11-03T00:06:59.389Z,69.34
2022-11-03T00:09:27.711Z,70.18
2022-11-03T00:11:55.460Z,69.51
2022-11-03T00:14:23.088Z,67.55
2022-11-03T00:16:52.104Z,67.89
2022-11-03T00:19:19.891Z,69.73
2022-11-03T00:21:47.860Z,67.83
2022-11-03T00:24:15.556Z,70.79
2022-11-03T00:26:43.229Z,70.03
2022-11-03T00:29:12.727Z,69.25
2022-11-03T00:31:41.657Z,68.81
2022-11-03T00:34:11.391Z,70.98
2022-11-03T00:36:40.231Z,69.53
2022-11-03T00:39:08.140Z,68.99
2022-11-03T00:41:36.073Z,71.17
2022-11-03T00:44:03.923Z,70.79
2022-11-03T00:46:35.055Z,70.14
2022-11-03T00:49:02.963Z,69.96
2022-11-03T00:51:33.475Z,71.25
2022-11-03T00:54:02.349Z,70.05
2022-11-03T00:56:31.390Z,70.82
2022-11-03T00:59:00.220Z,71.10
2022-11-03T01:01:32.265Z,71.29
2022-11-03T01:04:17.929Z,74.74
2022-11-03T01:06:51.369Z,71.63
2022-11-03T01:09:19.938Z,70.42
2022-11-03T01:11:58.945Z,73.49
2022-11-03T01:14:30.537Z,71.70
2022-11-03T01:16:58.185Z,70.85
2022-11-03T01:19:26.327Z,71.66
2022-11-03T01:21:55.407Z,71.99
2022-11-03T01:24:23.403Z,72.52
2022-11-03T01:26:51.242Z,70.79
2022-11-03T01:29:18.899Z,71.41
2022-11-03T01:31:47.554Z,70.89
2022-11-03T01:34:16.595Z,71.98
2022-11-03T01:36:44.763Z,71.11
2022-11-03T01:39:14.710Z,72.31
2022-11-03T01:41:43.024Z,73.31
2022-11-03T01:44:32.370Z,72.56
2022-11-03T01:47:17.457Z,73.50
2022-11-03T01:49:48.801Z,72.25
2022-11-03T01:52:19.899Z,72.74
2022-11-03T01:54:51.389Z,73.64
2022-11-03T01:57:24.208Z,73.01
2022-11-03T01:59:52.186Z,73.24
2022-11-03T02:02:19.935Z,73.54
2022-11-03T02:04:47.772Z,72.90
2022-11-03T02:07:20.486Z,72.31
2022-11-03T02:09:49.511Z,75.64
2022-11-03T02:12:17.652Z,74.50
2022-11-03T02:14:52.498Z,76.39
2022-11-03T02:17:21.980Z,74.45
2022-11-03T02:19:52.443Z,73.06
2022-11-03T02:22:35.165Z,74.74
2022-11-03T02:25:13.339Z,74.21
2022-11-03T02:27:42.541Z,74.80
2022-11-03T02:30:11.083Z,74.06
2022-11-03T02:32:44.887Z,75.14
2022-11-03T02:35:15.183Z,73.79
2022-11-03T02:37:44.868Z,74.58
2022-11-03T02:40:15.467Z,73.99
2022-11-03T02:42:47.517Z,73.09
2022-11-03T02:45:17.612Z,74.40
2022-11-03T02:47:45.928Z,75.03
2022-11-03T02:50:13.623Z,74.37
2022-11-03T02:52:42.849Z,73.72
2022-11-03T02:55:14.293Z,73.70
2022-11-03T02:57:48.406Z,73.75
2022-11-03T03:00:17.532Z,74.32
2022-11-03T03:02:53.187Z,73.66
2022-11-03T03:05:22.587Z,73.26
2022-11-03T03:07:54.016Z,72.81
2022-11-03T03:10:23.701Z,72.81
2022-11-03T03:12:54.825Z,73.92
2022-11-03T03:15:24.946Z,76.00
2022-11-03T03:17:55.023Z,75.04
2022-11-03T03:20:25.830Z,75.19
2022-11-03T03:22:57.631Z,73.39
2022-11-03T03:25:28.046Z,74.94
2022-11-03T03:28:01.367Z,75.66
2022-11-03T03:30:30.603Z,76.71
2022-11-03T03:32:59.183Z,74.79
2022-11-03T03:35:29.818Z,75.28
2022-11-03T03:38:01.443Z,74.20
2022-11-03T03:40:32.380Z,75.19
2022-11-03T03:43:02.527Z,73.57
2022-11-03T03:45:31.559Z,73.84
2022-11-03T03:47:59.353Z,75.11
2022-11-03T03:50:28.299Z,74.17
2022-11-03T03:52:56.843Z,74.90
2022-11-03T03:55:27.789Z,73.45
2022-11-03T03:57:59.450Z,74.23
2022-11-03T04:00:29.635Z,77.43
2022-11-03T04:02:57.991Z,74.27
2022-11-03T04:05:26.088Z,75.10
2022-11-03T04:07:53.846Z,74.96
2022-11-03T04:10:23.182Z,74.48
2022-11-03T04:13:08.382Z,74.51
2022-11-03T04:15:54.775Z,74.66
2022-11-03T04:18:40.560Z,76.06
2022-11-03T04:21:27.757Z,77.28
2022-11-03T04:23:55.395Z,75.53
2022-11-03T04:26:23.944Z,75.28
2022-11-03T04:28:51.833Z,75.51
2022-11-03T04:31:21.849Z,74.52
2022-11-03T04:33:50.186Z,74.54
2022-11-03T04:36:20.137Z,76.11
2022-11-03T04:38:48.415Z,77.41
2022-11-03T04:41:19.340Z,75.12
2022-11-03T04:43:47.388Z,74.38
2022-11-03T04:46:18.255Z,76.25
2022-11-03T04:48:47.600Z,77.64
2022-11-03T04:51:17.448Z,76.21
2022-11-03T04:53:48.886Z,76.27
2022-11-03T04:56:18.073Z,75.41
2022-11-03T04:58:47.921Z,74.87
2022-11-03T05:01:22.499Z,74.50
2022-11-03T05:03:54.676Z,75.91
2022-11-03T05:06:23.476Z,74.30
2022-11-03T05:08:53.583Z,74.30
2022-11-03T05:11:23.311Z,72.84
2022-11-03T05:13:51.376Z,74.31
2022-11-03T05:16:19.459Z,73.58
2022-11-03T05:18:50.027Z,74.06
2022-11-03T05:21:20.776Z,74.35
2022-11-03T05:23:50.276Z,73.39
2022-11-03T05:26:19.974Z,75.74
2022-11-03T05:28:50.023Z,73.55
2022-11-03T05:31:24.408Z,73.97
2022-11-03T05:33:53.823Z,74.45
2022-11-03T05:36:24.557Z,73.59
2022-11-03T05:38:53.145Z,74.21
2022-11-03T05:41:24.847Z,74.83
2022-11-03T05:43:56.488Z,75.04
2022-11-03T05:46:25.351Z,74.86
2022-11-03T05:48:53.105Z,75.29
2022-11-03T05:51:25.336Z,75.00
2022-11-03T05:53:55.341Z,74.76
2022-11-03T05:56:24.996Z,75.03
2022-11-03T05:58:53.731Z,77.92
2022-11-03T06:01:26.190Z,77.26
2022-11-03T06:03:54.241Z,75.81
2022-11-03T06:06:30.869Z,74.40
2022-11-03T06:09:00.286Z,77.62
2022-11-03T06:11:29.744Z,76.64
2022-11-03T06:13:58.967Z,77.34
2022-11-03T06:16:39.660Z,77.50
2022-11-03T06:19:18.476Z,77.09
2022-11-03T06:21:47.720Z,76.18
2022-11-03T06:24:15.992Z,78.97
2022-11-03T06:26:44.688Z,78.61
2022-11-03T06:29:16.429Z,77.81
2022-11-03T06:31:44.750Z,78.20
2022-11-03T06:34:32.431Z,76.67
2022-11-03T06:37:12.645Z,77.28
2022-11-03T06:39:41.368Z,80.98
2022-11-03T06:42:12.655Z,78.90
2022-11-03T06:44:41.945Z,79.89
2022-11-03T06:47:19.608Z,77.80
2022-11-03T06:49:47.806Z,80.19
2022-11-03T06:52:24.596Z,80.88
2022-11-03T06:54:56.474Z,80.53
2022-11-03T06:57:24.103Z,82.56
2022-11-03T07:00:06.664Z,81.41
2022-11-03T07:02:54.799Z,83.16
2022-11-03T07:05:23.561Z,82.92
2022-11-03T07:07:54.274Z,81.92
2022-11-03T07:10:24.178Z,80.28
2022-11-03T07:12:51.851Z,80.71
2022-11-03T07:15:26.178Z,80.40
2022-11-03T07:17:54.239Z,82.60
2022-11-03T07:20:22.744Z,80.02
2022-11-03T07:22:53.262Z,80.40
2022-11-03T07:25:22.480Z,78.35
2022-11-03T07:27:52.112Z,80.46
2022-11-03T07:30:21.834Z,80.15
2022-11-03T07:32:51.010Z,80.56
2022-11-03T07:35:53.235Z,82.80
2022-11-03T07:38:22.885Z,79.52
2022-11-03T07:40:51.336Z,81.05
2022-11-03T07:43:20.913Z,79.47
2022-11-03T07:45:50.388Z,78.59
2022-11-03T07:48:23.627Z,78.58
2022-11-03T07:50:52.975Z,77.82
2022-11-03T07:53:26.296Z,79.01
2022-11-03T07:55:56.491Z,78.12
2022-11-03T07:58:35.752Z,77.60
2022-11-03T08:01:15.715Z,76.66
2022-11-03T08:03:46.094Z,77.37
2022-11-03T08:06:17.188Z,78.43
2022-11-03T08:08:48.845Z,77.95
2022-11-03T08:11:16.575Z,77.87
2022-11-03T08:13:44.252Z,79.07
2022-11-03T08:16:11.926Z,76.65
2022-11-03T08:18:39.742Z,75.83
2022-11-03T08:21:07.445Z,75.35
2022-11-03T08:23:35.073Z,74.39
2022-11-03T08:26:04.081Z,75.56
2022-11-03T08:28:31.904Z,74.94
2022-11-03T08:31:02.249Z,72.76
2022-11-03T08:36:04.030Z,73.86
2022-11-03T08:38:31.888Z,73.83
2022-11-03T08:40:59.544Z,72.77
2022-11-03T08:43:28.728Z,74.47
2022-11-03T08:45:57.301Z,73.76
2022-11-03T08:48:28.647Z,73.56
2022-11-03T08:50:56.962Z,74.25
2022-11-03T08:53:26.061Z,73.78
2022-11-03T08:55:53.798Z,71.53
2022-11-03T08:58:21.544Z,73.05
2022-11-03T09:00:51.001Z,71.86
2022-11-03T09:03:18.757Z,69.82
2022-11-03T09:05:46.452Z,71.00
2022-11-03T09:11:01.773Z,69.42
2022-11-03T09:13:29.430Z,70.31
2022-11-03T09:15:58.439Z,70.21
2022-11-03T09:18:26.051Z,69.04
2022-11-03T09:20:53.704Z,67.46
2022-11-03T09:23:21.802Z,68.57
2022-11-03T09:25:49.469Z,66.97
2022-11-03T09:28:17.108Z,65.62
2022-11-03T09:30:44.723Z,66.86
2022-11-03T09:33:13.732Z,67.37
2022-11-03T09:35:41.820Z,65.75
2022-11-03T09:38:09.940Z,67.32
2022-11-03T09:40:37.895Z,66.14
2022-11-03T09:43:06.176Z,66.68
2022-11-03T09:45:34.069Z,67.16
2022-11-03T09:48:02.363Z,66.86
2022-11-03T09:50:32.816Z,66.46
2022-11-03T09:53:00.552Z,66.81
2022-11-03T09:55:28.728Z,65.02
2022-11-03T09:57:56.882Z,64.26
2022-11-03T10:00:26.840Z,62.72
2022-11-03T10:02:55.128Z,60.55
2022-11-03T10:05:25.955Z,61.23
2022-11-03T10:07:58.794Z,60.97
2022-11-03T10:10:26.890Z,61.15
2022-11-03T10:12:55.214Z,59.68
2022-11-03T10:15:23.926Z,57.76
2022-11-03T10:17:51.795Z,60.12
2022-11-03T10:20:21.376Z,57.99
2022-11-03T10:22:52.615Z,56.89
2022-11-03T10:25:35.299Z,55.69
2022-11-03T10:28:20.784Z,55.85
2022-11-03T10:31:12.684Z,56.40
2022-11-03T10:33:42.339Z,55.97
2022-11-03T10:36:24.670Z,54.86
2022-11-03T10:38:52.688Z,56.64
2022-11-03T10:41:23.143Z,54.19
2022-11-03T10:44:05.919Z,54.68
2022-11-03T10:46:50.383Z,56.08
2022-11-03T10:49:20.654Z,57.71
2022-11-03T10:51:50.522Z,57.31
2022-11-03T10:54:19.355Z,58.18
2022-11-03T10:56:49.489Z,57.68
2022-11-03T10:59:19.469Z,57.54
2022-11-03T11:01:47.491Z,58.39
2022-11-03T11:04:16.959Z,59.34
2022-11-03T11:06:45.008Z,58.29
2022-11-03T11:09:14.443Z,57.98
2022-11-03T11:11:59.867Z,57.16
2022-11-03T11:14:37.944Z,57.10
2022-11-03T11:17:06.304Z,57.13
2022-11-03T11:20:06.348Z,56.07
2022-11-03T11:22:34.010Z,55.30
2022-11-03T11:25:03.404Z,55.34
2022-11-03T11:28:00.379Z,54.59
2022-11-03T11:31:04.800Z,54.88
2022-11-03T11:33:35.101Z,54.80
2022-11-03T11:36:20.157Z,53.81
2022-11-03T11:39:05.973Z,53.20
2022-11-03T11:42:08.565Z,53.34
2022-11-03T11:44:58.328Z,52.79
2022-11-03T11:47:46.952Z,53.15
2022-11-03T11:50:23.520Z,52.91
2022-11-03T11:52:56.738Z,52.27
2022-11-03T11:55:30.803Z,52.00
2022-11-03T11:57:59.528Z,52.64
2022-11-03T12:00:29.423Z,51.07
2022-11-03T12:02:57.541Z,51.76
2022-11-03T12:05:28.196Z,52.04
2022-11-03T12:07:56.430Z,51.46
2022-11-03T12:10:27.139Z,53.13
2022-11-03T12:12:55.179Z,51.65
2022-11-03T12:15:51.487Z,51.89
2022-11-03T12:18:40.177Z,52.53
2022-11-03T12:21:13.887Z,53.07
2022-11-03T12:23:43.071Z,52.24
2022-11-03T12:26:16.845Z,52.91
2022-11-03T12:28:44.880Z,53.36
2022-11-03T12:31:13.052Z,53.04
2022-11-03T12:33:41.357Z,53.84
2022-11-03T12:36:10.783Z,52.89
2022-11-03T12:38:38.482Z,51.45
2022-11-03T12:41:20.063Z,50.90
2022-11-03T12:43:48.280Z,49.17
2022-11-03T12:46:16.713Z,47.88
2022-11-03T12:48:44.784Z,48.84
2022-11-03T12:51:14.900Z,49.07
2022-11-03T12:53:42.645Z,48.83
2022-11-03T12:56:10.980Z,48.76
2022-11-03T12:58:38.889Z,48.89
2022-11-03T13:01:07.486Z,49.83
2022-11-03T13:03:36.154Z,49.08
2022-11-03T13:06:04.896Z,49.20
2022-11-03T13:08:34.031Z,49.06
2022-11-03T13:11:01.920Z,48.77
2022-11-03T13:13:29.585Z,49.50
2022-11-03T13:15:57.331Z,49.41
2022-11-03T13:18:24.973Z,49.65
2022-11-03T13:20:52.644Z,49.75
2022-11-03T13:23:23.078Z,50.03
2022-11-03T13:25:52.356Z,52.40
2022-11-03T13:28:20.038Z,51.59
2022-11-03T13:30:49.108Z,51.51
2022-11-03T13:33:16.725Z,51.55
2022-11-03T13:35:44.368Z,50.00
2022-11-03T13:38:12.072Z,50.41
2022-11-03T13:40:56.430Z,50.78
2022-11-03T13:43:27.092Z,50.95
2022-11-03T13:45:54.722Z,51.78
2022-11-03T13:49:20.055Z,51.17
2022-11-03T13:51:12.014Z,51.42
2022-11-03T13:56:28.121Z,50.94
2022-11-03T14:01:45.267Z,52.93
2022-11-03T14:07:00.747Z,51.72
2022-11-03T14:09:28.490Z,52.44
2022-11-03T14:12:13.753Z,52.65
2022-11-03T14:14:43.268Z,50.28
2022-11-03T14:17:10.983Z,50.78
2022-11-03T14:19:43.988Z,50.29
2022-11-03T14:22:13.785Z,50.31
2022-11-03T14:24:41.438Z,50.17
2022-11-03T14:27:09.137Z,49.62
2022-11-03T14:29:36.772Z,50.27
2022-11-03T14:32:06.896Z,50.18
2022-11-03T14:34:34.627Z,50.08
2022-11-03T14:37:02.339Z,50.54
2022-11-03T14:39:30.105Z,50.30
2022-11-03T14:42:05.701Z,50.90
2022-11-03T14:44:34.333Z,52.03
2022-11-03T14:47:02.704Z,51.21
2022-11-03T14:49:32.469Z,51.94
2022-11-03T14:52:01.689Z,51.61
2022-11-03T14:54:30.771Z,52.30
2022-11-03T14:56:58.683Z,52.25
2022-11-03T14:59:26.735Z,52.69
2022-11-03T15:01:55.223Z,53.62
2022-11-03T15:04:23.948Z,52.56
2022-11-03T15:06:52.953Z,53.28
2022-11-03T15:09:20.622Z,53.18
2022-11-03T15:11:48.303Z,53.19
2022-11-03T15:14:15.954Z,53.40
2022-11-03T15:16:45.930Z,53.34
2022-11-03T15:19:13.668Z,52.64
2022-11-03T15:21:41.380Z,53.13
2022-11-03T15:26:58.228Z,53.42
2022-11-03T15:29:25.903Z,52.56
2022-11-03T15:31:53.546Z,52.32
2022-11-03T15:34:21.369Z,53.53
2022-11-03T15:36:48.999Z,52.66
2022-11-03T15:39:18.260Z,52.69
2022-11-03T15:41:45.902Z,52.68
2022-11-03T15:44:13.613Z,53.57
2022-11-03T15:46:41.411Z,52.90
2022-11-03T15:49:09.265Z,53.63
2022-11-03T15:51:36.905Z,52.80
2022-11-03T15:54:04.686Z,54.86
2022-11-03T15:56:33.713Z,59.82
2022-11-03T15:59:01.500Z,64.82
2022-11-03T16:01:29.443Z,66.60
2022-11-03T16:03:57.279Z,68.48
2022-11-03T16:06:46.614Z,70.80
2022-11-03T16:09:12.655Z,70.40
2022-11-03T16:11:41.632Z,72.01
2022-11-03T16:14:09.292Z,73.64
2022-11-03T16:16:36.991Z,77.85
2022-11-03T16:19:04.675Z,78.60
2022-11-03T16:21:32.341Z,79.43
2022-11-03T16:24:00.010Z,82.83
2022-11-03T16:26:27.648Z,83.96
2022-11-03T16:28:56.671Z,84.54
2022-11-03T16:31:24.327Z,86.97
2022-11-03T16:33:52.052Z,86.95
2022-11-03T16:36:20.000Z,89.75
2022-11-03T16:38:47.897Z,88.63
2022-11-03T16:41:15.826Z,89.80
2022-11-03T16:43:43.467Z,89.55
2022-11-03T16:46:12.481Z,93.86
2022-11-03T16:48:40.101Z,90.55
2022-11-03T16:51:07.767Z,90.51
2022-11-03T16:53:35.396Z,93.62
2022-11-03T16:56:03.016Z,93.87
2022-11-03T16:58:30.671Z,91.30
2022-11-03T17:00:58.374Z,92.49
2022-11-03T17:03:27.412Z,93.53
2022-11-03T17:05:55.158Z,93.49
2022-11-03T17:11:10.471Z,96.36
2022-11-03T17:13:38.109Z,97.68
2022-11-03T17:16:06.144Z,98.04
2022-11-03T17:18:35.160Z,97.84
2022-11-03T17:21:02.841Z,97.18
2022-11-03T17:23:30.472Z,98.15
2022-11-03T17:26:00.577Z,98.53
2022-11-03T17:28:28.240Z,100.00
2022-11-03T17:30:55.883Z,99.46
2022-11-03T17:33:23.561Z,100.00
2022-11-03T17:35:52.604Z,97.69
2022-11-03T17:38:20.501Z,100.00
2022-11-03T17:40:49.012Z,99.37
2022-11-03T17:43:20.335Z,98.27
2022-11-03T17:45:48.520Z,100.00
2022-11-03T17:48:16.251Z,100.00
2022-11-03T17:50:46.713Z,100.00
2022-11-03T17:53:21.928Z,100.00
2022-11-03T17:56:09.055Z,100.00
2022-11-03T17:58:44.915Z,100.00
2022-11-03T18:01:16.229Z,100.00
2022-11-03T18:03:44.215Z,100.00
2022-11-03T18:06:18.969Z,100.00
2022-11-03T18:08:48.328Z,100.00
2022-11-03T18:11:35.033Z,100.00
2022-11-03T18:14:03.642Z,100.00
2022-11-03T18:16:31.868Z,100.00
2022-11-03T18:18:59.742Z,100.00
2022-11-03T18:21:27.748Z,100.00
2022-11-03T18:23:56.748Z,100.00
2022-11-03T18:26:25.945Z,100.00
2022-11-03T18:28:53.868Z,100.00
2022-11-03T18:31:23.639Z,100.00
2022-11-03T18:33:51.888Z,100.00
2022-11-03T18:36:19.996Z,100.00
2022-11-03T18:38:48.733Z,100.00
2022-11-03T18:41:39.265Z,100.00
2022-11-03T18:44:19.140Z,100.00
2022-11-03T18:46:47.015Z,100.00
2022-11-03T18:49:14.890Z,100.00
2022-11-03T18:51:46.405Z,100.00
2022-11-03T18:54:15.133Z,100.00
2022-11-03T18:56:44.280Z,100.00
2022-11-03T18:59:20.319Z,100.00
2022-11-03T19:01:48.830Z,100.00
2022-11-03T19:04:16.537Z,100.00
2022-11-03T19:06:44.896Z,100.00
2022-11-03T19:09:14.904Z,100.00
2022-11-03T19:11:44.747Z,100.00
2022-11-03T19:14:15.683Z,100.00
2022-11-03T19:17:02.012Z,100.00
2022-11-03T19:19:31.452Z,100.00
2022-11-03T19:21:59.176Z,100.00
2022-11-03T19:24:27.049Z,100.00
2022-11-03T19:26:58.904Z,100.00
2022-11-03T19:29:29.432Z,100.00
2022-11-03T19:31:57.201Z,100.00
2022-11-03T19:34:26.493Z,100.00
2022-11-03T19:36:54.314Z,100.00
2022-11-03T19:39:25.735Z,100.00
2022-11-03T19:42:11.072Z,100.00
2022-11-03T19:44:40.100Z,100.00
2022-11-03T19:47:08.144Z,100.00
2022-11-03T19:49:35.875Z,100.00
2022-11-03T19:52:04.467Z,100.00
2022-11-03T19:54:32.152Z,100.00
2022-11-03T19:56:59.815Z,100.00
2022-11-03T19:59:27.486Z,100.00
2022-11-03T20:01:56.631Z,100.00
2022-11-03T20:04:24.345Z,100.00
2022-11-03T20:06:52.021Z,100.00
2022-11-03T20:09:19.868Z,100.00
2022-11-03T20:11:47.649Z,100.00
2022-11-03T20:14:18.960Z,100.00
2022-11-03T20:16:46.638Z,100.00
2022-11-03T20:19:15.811Z,100.00
2022-11-03T20:21:43.974Z,100.00
2022-11-03T20:24:12.624Z,100.00
2022-11-03T20:26:40.242Z,100.00
2022-11-03T20:29:11.983Z,100.00
2022-11-03T20:31:39.716Z,100.00
2022-11-03T20:34:07.424Z,100.00
2022-11-03T20:36:36.412Z,100.00
2022-11-03T20:39:04.441Z,100.00
2022-11-03T20:41:32.257Z,100.00
2022-11-03T20:44:00.151Z,100.00
2022-11-03T20:46:29.476Z,100.00
2022-11-03T20:48:57.548Z,100.00
2022-11-03T20:51:27.087Z,100.00
2022-11-03T20:53:56.750Z,100.00
2022-11-03T20:56:26.108Z,100.00
2022-11-03T20:58:54.274Z,100.00
2022-11-03T21:01:25.415Z,100.00
2022-11-03T21:03:59.265Z,100.00
2022-11-03T21:06:28.612Z,100.00
2022-11-03T21:08:58.320Z,100.00
2022-11-03T21:11:30.898Z,100.00
2022-11-03T21:14:00.254Z,100.00
2022-11-03T21:16:46.695Z,100.00
2022-11-03T21:19:36.062Z,100.00
2022-11-03T21:22:03.774Z,100.00
2022-11-03T21:24:32.861Z,100.00
2022-11-03T21:27:00.514Z,100.00
2022-11-03T21:29:46.013Z,100.00
2022-11-03T21:32:17.251Z,100.00
2022-11-03T21:34:45.252Z,100.00
2022-11-03T21:37:15.076Z,100.00
2022-11-03T21:39:44.429Z,100.00
2022-11-03T21:42:30.002Z,100.00
2022-11-03T21:44:58.682Z,100.00
2022-11-03T21:47:26.906Z,100.00
2022-11-03T21:49:53.850Z,100.00
2022-11-03T21:52:31.830Z,100.00
2022-11-03T21:55:01.692Z,100.00
2022-11-03T21:57:29.902Z,100.00
2022-11-03T21:59:58.958Z,100.00
2022-11-03T22:02:29.769Z,100.00
2022-11-03T22:04:57.607Z,100.00
2022-11-03T22:07:25.348Z,100.00
2022-11-03T22:09:52.975Z,100.00
2022-11-03T22:12:22.006Z,100.00
2022-11-03T22:15:07.196Z,100.00
2022-11-03T22:17:34.891Z,100.00
2022-11-03T22:20:20.083Z,100.00
2022-11-03T22:23:05.427Z,100.00
2022-11-03T22:25:56.324Z,100.00
2022-11-03T22:28:25.300Z,100.00
2022-11-03T22:31:10.716Z,100.00
2022-11-03T22:33:58.794Z,100.00
2022-11-03T22:36:25.626Z,100.00
2022-11-03T22:39:10.767Z,100.00
2022-11-03T22:41:56.011Z,100.00
2022-11-03T22:44:42.571Z,100.00
2022-11-03T22:47:11.333Z,100.00
2022-11-03T22:49:41.871Z,100.00
2022-11-03T22:52:11.256Z,100.00
2022-11-03T22:54:38.918Z,100.00
2022-11-03T22:57:07.623Z,100.00
2022-11-03T22:59:37.748Z,100.00
2022-11-03T23:02:05.534Z,100.00
2022-11-03T23:04:33.415Z,100.00
2022-11-03T23:07:01.111Z,100.00
2022-11-03T23:09:28.824Z,100.00
2022-11-03T23:11:56.443Z,100.00
2022-11-03T23:14:44.114Z,100.00
2022-11-03T23:17:13.153Z,100.00
2022-11-03T23:19:58.414Z,100.00
2022-11-03T23:22:26.083Z,100.00
2022-11-03T23:25:02.009Z,100.00
2022-11-03T23:27:29.892Z,100.00
2022-11-03T23:29:57.526Z,100.00
2022-11-03T23:32:26.560Z,100.00
2022-11-03T23:34:54.195Z,100.00
2022-11-03T23:37:21.871Z,100.00
2022-11-03T23:39:49.517Z,100.00
2022-11-03T23:42:17.371Z,100.00
2022-11-03T23:45:02.605Z,100.00
2022-11-03T23:47:49.276Z,100.00
2022-11-03T23:50:17.027Z,100.00
2022-11-03T23:52:44.667Z,100.00
2022-11-03T23:55:12.295Z,100.00
2022-11-03T23:57:57.603Z,100.00
